Terminal Aerodrome Forecast
Issued by NWS Cleveland, OH

Home | Current Version | Previous Version | Graphics & Text | Print | Product List | Glossary On
Versions: 1 2 3 4 5 6 7 8 9 10 11 12 13 14 15 16 17 18 19 20 21
000
FTUS41 KCLE 301741
TAFERI
TAF
KERI 301741Z 3018/3118 10012KT 6SM -SHRA BR OVC060
     FM302000 09015G25KT P6SM OVC060
     FM310000 12015G25KT P6SM VCSH OVC060
     FM311000 14010KT 5SM -SHRA OVC035
     FM311500 12010KT 4SM -DZ BR OVC025=

USA.gov is the U.S. government's official web portal to all federal, state and local government web resources and services.